createdAt,value
2023-04-09T00:00:08.232Z,8.63
2023-04-09T00:04:34.238Z,8.66
2023-04-09T00:08:36.305Z,8.67
2023-04-09T00:12:38.367Z,8.63
2023-04-09T00:16:40.835Z,8.57
2023-04-09T00:20:44.384Z,8.62
2023-04-09T00:24:46.492Z,8.61
2023-04-09T00:28:48.494Z,8.58
2023-04-09T00:32:51.156Z,8.50
2023-04-09T00:36:53.294Z,8.47
2023-04-09T00:40:55.362Z,8.43
2023-04-09T00:44:57.364Z,8.40
2023-04-09T00:48:59.736Z,8.40
2023-04-09T00:53:01.455Z,8.35
2023-04-09T00:57:03.631Z,8.24
2023-04-09T01:01:05.852Z,8.12
2023-04-09T01:05:08.675Z,8.25
2023-04-09T01:10:08.109Z,8.20
2023-04-09T01:14:23.264Z,8.17
2023-04-09T01:18:36.262Z,8.18
2023-04-09T01:22:57.184Z,8.15
2023-04-09T01:27:07.275Z,8.06
2023-04-09T01:31:34.270Z,8.09
2023-04-09T01:35:37.085Z,7.94
2023-04-09T01:39:39.677Z,7.92
2023-04-09T01:43:43.281Z,7.98
2023-04-09T01:47:45.934Z,8.02
2023-04-09T01:51:48.553Z,8.05
2023-04-09T01:55:50.703Z,8.03
2023-04-09T01:59:52.866Z,7.98
2023-04-09T02:03:59.034Z,7.97
2023-04-09T02:08:03.704Z,7.97
2023-04-09T02:12:09.610Z,8.05
2023-04-09T02:16:14.261Z,7.87
2023-04-09T02:20:18.904Z,7.94
2023-04-09T02:24:21.530Z,7.93
2023-04-09T02:28:23.776Z,7.92
2023-04-09T02:32:27.041Z,7.90
2023-04-09T02:36:29.541Z,7.94
2023-04-09T02:40:31.700Z,7.90
2023-04-09T02:44:33.794Z,8.00
2023-04-09T02:48:36.177Z,7.97
2023-04-09T02:52:38.672Z,8.06
2023-04-09T02:56:40.728Z,8.08
2023-04-09T03:00:42.904Z,7.99
2023-04-09T03:04:45.403Z,7.90
2023-04-09T03:08:47.479Z,7.86
2023-04-09T03:12:49.515Z,7.86
2023-04-09T03:16:52.016Z,7.92
2023-04-09T03:20:54.357Z,7.94
2023-04-09T03:24:56.382Z,7.77
2023-04-09T03:28:58.766Z,7.67
2023-04-09T03:33:01.221Z,7.58
2023-04-09T03:37:05.884Z,7.40
2023-04-09T03:41:08.012Z,7.20
2023-04-09T03:45:10.553Z,7.01
2023-04-09T03:49:17.378Z,6.81
2023-04-09T03:53:20.391Z,6.67
2023-04-09T03:57:22.699Z,6.44
2023-04-09T04:01:27.499Z,6.29
2023-04-09T04:05:34.097Z,6.21
2023-04-09T04:09:40.639Z,6.08
2023-04-09T04:13:47.112Z,6.15
2023-04-09T04:17:49.450Z,6.10
2023-04-09T04:22:03.145Z,6.20
2023-04-09T04:26:12.248Z,6.17
2023-04-09T04:30:16.637Z,6.24
2023-04-09T04:34:40.309Z,6.45
2023-04-09T04:38:53.640Z,6.54
2023-04-09T04:43:23.175Z,6.76
2023-04-09T04:47:29.040Z,6.91
2023-04-09T04:51:33.124Z,7.11
2023-04-09T04:55:40.057Z,7.33
2023-04-09T04:59:44.517Z,7.55
2023-04-09T05:03:48.910Z,7.74
2023-04-09T05:08:00.757Z,7.91
2023-04-09T05:12:03.019Z,7.93
2023-04-09T05:16:05.586Z,8.19
2023-04-09T05:20:10.284Z,8.38
2023-04-09T05:24:22.682Z,8.42
2023-04-09T05:28:25.505Z,8.53
2023-04-09T05:32:38.355Z,8.65
2023-04-09T05:36:40.660Z,8.75
2023-04-09T05:40:44.384Z,8.95
2023-04-09T05:44:47.958Z,9.10
2023-04-09T05:48:54.520Z,9.33
2023-04-09T05:52:58.488Z,9.50
2023-04-09T05:57:07.451Z,9.71
2023-04-09T06:01:12.605Z,9.98
2023-04-09T06:05:15.106Z,10.12
2023-04-09T06:09:17.224Z,9.96
2023-04-09T06:13:19.226Z,9.88
2023-04-09T06:17:21.334Z,10.14
2023-04-09T06:21:23.396Z,10.15
2023-04-09T06:25:25.533Z,10.31
2023-04-09T06:29:28.037Z,10.55
2023-04-09T06:33:30.174Z,10.70
2023-04-09T06:37:32.294Z,10.64
2023-04-09T06:41:34.319Z,10.79
2023-04-09T06:45:43.880Z,11.13
2023-04-09T06:49:45.936Z,11.04
2023-04-09T06:53:48.184Z,11.30
2023-04-09T06:57:50.423Z,11.30
2023-04-09T07:01:54.530Z,11.54
2023-04-09T07:05:57.650Z,11.77
2023-04-09T07:09:59.326Z,11.76
2023-04-09T07:14:01.295Z,11.90
2023-04-09T07:18:03.638Z,11.95
2023-04-09T07:22:05.887Z,12.15
2023-04-09T07:26:07.894Z,12.23
2023-04-09T07:30:10.882Z,12.22
2023-04-09T07:34:13.023Z,12.41
2023-04-09T07:38:15.180Z,12.48
2023-04-09T07:42:17.326Z,12.57
2023-04-09T07:46:21.773Z,12.68
2023-04-09T07:50:24.004Z,12.90
2023-04-09T07:54:25.937Z,13.17
2023-04-09T07:58:28.303Z,13.33
2023-04-09T08:02:31.176Z,13.55
2023-04-09T08:06:33.458Z,13.72
2023-04-09T08:10:35.825Z,13.68
2023-04-09T08:14:37.863Z,13.70
2023-04-09T08:18:39.992Z,13.77
2023-04-09T08:22:42.175Z,13.95
2023-04-09T08:26:44.472Z,13.99
2023-04-09T08:30:47.672Z,13.86
2023-04-09T08:34:49.880Z,13.87
2023-04-09T08:38:53.153Z,13.90
2023-04-09T08:42:59.361Z,14.36
2023-04-09T08:47:02.577Z,14.34
2023-04-09T08:51:05.541Z,14.53
2023-04-09T08:55:08.463Z,14.65
2023-04-09T08:59:10.509Z,14.43
2023-04-09T09:03:13.433Z,14.59
2023-04-09T09:07:17.142Z,14.63
2023-04-09T09:11:28.403Z,14.42
2023-04-09T09:15:30.992Z,14.39
2023-04-09T09:19:33.915Z,14.54
2023-04-09T09:23:39.143Z,14.29
2023-04-09T09:27:41.307Z,14.21
2023-04-09T09:31:51.362Z,14.06
2023-04-09T09:35:57.566Z,14.05
2023-04-09T09:40:01.027Z,14.11
2023-04-09T09:44:04.549Z,14.41
2023-04-09T09:48:07.094Z,14.75
2023-04-09T09:52:11.628Z,14.53
2023-04-09T09:56:21.555Z,14.58
2023-04-09T10:00:25.512Z,14.86
2023-04-09T10:04:30.062Z,14.82
2023-04-09T10:08:34.190Z,14.89
2023-04-09T10:12:36.539Z,14.55
2023-04-09T10:16:38.783Z,14.28
2023-04-09T10:20:49.051Z,14.75
2023-04-09T10:24:52.608Z,14.94
2023-04-09T10:29:14.486Z,15.26
2023-04-09T10:33:23.028Z,15.55
2023-04-09T10:37:26.848Z,15.77
2023-04-09T10:41:30.799Z,15.81
2023-04-09T10:45:40.914Z,15.54
2023-04-09T10:49:42.940Z,15.24
2023-04-09T10:53:45.048Z,15.11
2023-04-09T10:57:47.190Z,15.43
2023-04-09T11:01:54.246Z,15.57
2023-04-09T11:06:11.610Z,16.10
2023-04-09T11:10:13.637Z,16.35
2023-04-09T11:14:20.383Z,16.09
2023-04-09T11:18:27.455Z,15.73
2023-04-09T11:22:29.465Z,15.33
2023-04-09T11:26:37.680Z,15.13
2023-04-09T11:30:39.687Z,15.13
2023-04-09T11:34:41.934Z,15.15
2023-04-09T11:38:43.965Z,15.20
2023-04-09T11:42:48.758Z,15.44
2023-04-09T11:46:51.093Z,15.47
2023-04-09T11:50:53.734Z,15.65
2023-04-09T11:55:00.378Z,15.49
2023-04-09T11:59:03.722Z,15.37
2023-04-09T12:03:06.594Z,15.55
2023-04-09T12:07:10.083Z,15.58
2023-04-09T12:11:16.083Z,16.32
2023-04-09T12:15:23.541Z,16.43
2023-04-09T12:19:25.749Z,16.04
2023-04-09T12:23:27.922Z,16.07
2023-04-09T12:27:30.248Z,15.87
2023-04-09T12:31:33.341Z,15.57
2023-04-09T12:35:35.643Z,15.47
2023-04-09T12:39:37.692Z,15.21
2023-04-09T12:43:39.753Z,14.87
2023-04-09T12:47:41.935Z,14.46
2023-04-09T12:51:44.006Z,13.88
2023-04-09T12:55:46.115Z,13.70
2023-04-09T12:59:48.195Z,13.66
2023-04-09T13:03:50.355Z,13.48
2023-04-09T13:07:52.558Z,13.42
2023-04-09T13:11:54.697Z,13.58
2023-04-09T13:15:56.363Z,13.79
2023-04-09T13:19:58.407Z,13.80
2023-04-09T13:24:00.558Z,13.86
2023-04-09T13:28:02.696Z,13.80
2023-04-09T13:32:07.384Z,13.71
2023-04-09T13:36:09.643Z,13.40
2023-04-09T13:40:11.964Z,12.83
2023-04-09T13:44:14.031Z,12.82
2023-04-09T13:48:16.172Z,12.47
2023-04-09T13:52:18.231Z,12.42
2023-04-09T13:56:20.590Z,12.26
2023-04-09T14:00:22.752Z,12.29
2023-04-09T14:04:24.824Z,12.49
2023-04-09T14:08:26.888Z,12.54
2023-04-09T14:12:28.911Z,12.77
2023-04-09T14:16:31.146Z,12.92
2023-04-09T14:20:33.622Z,12.79
2023-04-09T14:24:39.870Z,13.05
2023-04-09T14:28:43.358Z,13.23
2023-04-09T14:32:45.489Z,13.71
2023-04-09T14:36:47.617Z,13.88
2023-04-09T14:40:50.383Z,14.24
2023-04-09T14:44:52.385Z,14.58
2023-04-09T14:48:54.633Z,14.67
2023-04-09T14:52:56.923Z,14.65
2023-04-09T14:56:59.084Z,14.39
2023-04-09T15:01:01.207Z,14.66
2023-04-09T15:05:03.828Z,14.71
2023-04-09T15:09:05.999Z,15.10
2023-04-09T15:13:07.668Z,15.20
2023-04-09T15:17:09.794Z,15.24
2023-04-09T15:21:11.901Z,15.50
2023-04-09T15:25:14.563Z,15.61
2023-04-09T15:29:16.715Z,16.37
2023-04-09T15:33:18.781Z,18.70
2023-04-09T15:37:21.043Z,20.56
2023-04-09T15:41:23.860Z,21.30
2023-04-09T15:45:26.519Z,22.11
2023-04-09T15:49:28.721Z,21.91
2023-04-09T15:53:31.452Z,21.57
2023-04-09T15:57:33.495Z,20.81
2023-04-09T16:01:36.449Z,18.66
2023-04-09T16:05:39.199Z,16.75
2023-04-09T16:09:41.517Z,15.82
2023-04-09T16:13:43.526Z,15.49
2023-04-09T16:17:45.636Z,15.11
2023-04-09T16:21:47.706Z,14.84
2023-04-09T16:25:50.285Z,14.67
2023-04-09T16:29:52.311Z,14.60
2023-04-09T16:33:54.446Z,14.52
2023-04-09T16:37:56.674Z,14.35
2023-04-09T16:41:59.019Z,14.00
2023-04-09T16:46:01.698Z,13.92
2023-04-09T16:50:04.459Z,13.76
2023-04-09T16:54:06.697Z,13.60
2023-04-09T16:58:08.409Z,13.56
2023-04-09T17:02:10.699Z,13.37
2023-04-09T17:06:12.757Z,13.26
2023-04-09T17:10:15.586Z,13.02
2023-04-09T17:14:17.639Z,13.04
2023-04-09T17:18:19.739Z,12.99
2023-04-09T17:22:22.075Z,12.92
2023-04-09T17:26:25.412Z,12.78
2023-04-09T17:30:27.614Z,12.57
2023-04-09T17:34:29.762Z,12.62
2023-04-09T17:38:32.057Z,12.72
2023-04-09T17:42:34.175Z,12.72
2023-04-09T17:46:36.845Z,12.55
2023-04-09T17:50:39.134Z,12.43
2023-04-09T17:54:41.917Z,12.27
2023-04-09T17:58:44.751Z,12.21
2023-04-09T18:02:47.172Z,12.11
2023-04-09T18:06:49.424Z,11.93
2023-04-09T18:11:05.059Z,11.74
2023-04-09T18:15:13.822Z,11.47
2023-04-09T18:19:15.929Z,11.43
2023-04-09T18:23:18.545Z,11.30
2023-04-09T18:27:21.539Z,11.30
2023-04-09T18:31:23.922Z,11.33
2023-04-09T18:35:26.098Z,11.28
2023-04-09T18:39:30.749Z,11.26
2023-04-09T18:43:33.017Z,11.27
2023-04-09T18:47:35.838Z,11.25
2023-04-09T18:51:37.949Z,11.19
2023-04-09T18:55:39.675Z,11.16
2023-04-09T18:59:42.242Z,11.23
2023-04-09T19:03:44.847Z,11.24
2023-04-09T19:07:47.522Z,11.18
2023-04-09T19:11:49.922Z,11.25
2023-04-09T19:15:51.939Z,11.25
2023-04-09T19:19:53.958Z,11.21
2023-04-09T19:23:56.608Z,11.18
2023-04-09T19:27:58.862Z,11.19
2023-04-09T19:32:01.222Z,11.19
2023-04-09T19:36:04.259Z,11.17
2023-04-09T19:40:07.297Z,11.11
2023-04-09T19:44:09.946Z,11.09
2023-04-09T19:48:12.793Z,11.06
2023-04-09T19:52:15.075Z,11.07
2023-04-09T19:56:17.087Z,10.92
2023-04-09T20:00:19.517Z,10.88
2023-04-09T20:04:24.562Z,10.93
2023-04-09T20:08:26.652Z,10.88
2023-04-09T20:12:29.541Z,10.85
2023-04-09T20:16:32.109Z,10.85
2023-04-09T20:20:34.162Z,10.84
2023-04-09T20:24:36.689Z,10.77
2023-04-09T20:28:38.442Z,10.75
2023-04-09T20:32:41.264Z,10.78
2023-04-09T20:36:44.034Z,10.80
2023-04-09T20:40:46.402Z,10.77
2023-04-09T20:44:48.427Z,10.77
2023-04-09T20:48:50.553Z,10.69
2023-04-09T20:52:52.638Z,10.64
2023-04-09T20:56:55.090Z,10.63
2023-04-09T21:01:08.216Z,10.54
2023-04-09T21:05:22.018Z,10.30
2023-04-09T21:09:26.161Z,10.27
2023-04-09T21:13:28.711Z,10.03
2023-04-09T21:17:32.906Z,9.83
2023-04-09T21:21:35.003Z,9.59
2023-04-09T21:25:37.089Z,9.33
2023-04-09T21:29:39.222Z,9.08
2023-04-09T21:33:41.248Z,8.86
2023-04-09T21:37:43.295Z,8.71
2023-04-09T21:41:45.271Z,8.53
2023-04-09T21:45:47.209Z,8.37
2023-04-09T21:49:50.261Z,8.21
2023-04-09T21:53:52.582Z,8.06
2023-04-09T21:57:55.337Z,7.86
2023-04-09T22:01:57.454Z,7.79
2023-04-09T22:05:59.501Z,7.65
2023-04-09T22:10:01.495Z,7.56
2023-04-09T22:14:03.545Z,7.47
2023-04-09T22:18:05.615Z,7.39
2023-04-09T22:22:08.967Z,7.27
2023-04-09T22:26:11.078Z,7.19
2023-04-09T22:30:13.812Z,7.14
2023-04-09T22:34:21.348Z,6.99
2023-04-09T22:38:24.075Z,6.89
2023-04-09T22:42:26.124Z,6.89
2023-04-09T22:46:28.961Z,6.81
2023-04-09T22:50:31.012Z,6.71
2023-04-09T22:54:33.070Z,6.59
2023-04-09T22:58:36.283Z,6.59
2023-04-09T23:02:38.435Z,6.51
2023-04-09T23:06:40.634Z,6.39
2023-04-09T23:10:42.669Z,6.29
2023-04-09T23:14:44.698Z,6.24
2023-04-09T23:18:46.808Z,6.22
2023-04-09T23:22:49.469Z,6.10
2023-04-09T23:26:51.506Z,6.08
2023-04-09T23:30:53.588Z,6.02
2023-04-09T23:34:57.247Z,5.90
2023-04-09T23:38:59.266Z,5.85
2023-04-09T23:43:02.205Z,5.73
2023-04-09T23:47:05.914Z,5.63
2023-04-09T23:51:08.045Z,5.64
2023-04-09T23:55:11.985Z,5.57
2023-04-09T23:59:13.974Z,5.62
